sensor_id;sensor_type;location;lat;lon;timestamp;pressure;altitude;pressure_sealevel;temperature;humidity
7433;BME280;32233;49.500;7.764;2024-02-21T00:01:22;99361.38;;;5.59;100.00
7433;BME280;32233;49.500;7.764;2024-02-21T00:03:49;99346.03;;;5.64;100.00
7433;BME280;32233;49.500;7.764;2024-02-21T00:06:15;99350.47;;;5.63;100.00
7433;BME280;32233;49.500;7.764;2024-02-21T00:08:42;99342.28;;;5.66;100.00
7433;BME280;32233;49.500;7.764;2024-02-21T00:11:09;99353.47;;;5.68;100.00
7433;BME280;32233;49.500;7.764;2024-02-21T00:13:36;99350.41;;;5.73;100.00
7433;BME280;32233;49.500;7.764;2024-02-21T00:16:02;99350.25;;;5.75;100.00
7433;BME280;32233;49.500;7.764;2024-02-21T00:18:29;99338.81;;;5.76;100.00
7433;BME280;32233;49.500;7.764;2024-02-21T00:20:56;99338.25;;;5.72;100.00
7433;BME280;32233;49.500;7.764;2024-02-21T00:23:23;99327.69;;;5.64;100.00
7433;BME280;32233;49.500;7.764;2024-02-21T00:25:49;99317.56;;;5.69;100.00
7433;BME280;32233;49.500;7.764;2024-02-21T00:28:16;99315.94;;;5.68;100.00
7433;BME280;32233;49.500;7.764;2024-02-21T00:30:43;99319.28;;;5.60;100.00
7433;BME280;32233;49.500;7.764;2024-02-21T00:33:10;99316.66;;;5.60;100.00
7433;BME280;32233;49.500;7.764;2024-02-21T00:35:37;99317.84;;;5.66;100.00
7433;BME280;32233;49.500;7.764;2024-02-21T00:38:04;99311.94;;;5.64;100.00
7433;BME280;32233;49.500;7.764;2024-02-21T00:40:31;99308.09;;;5.58;100.00
7433;BME280;32233;49.500;7.764;2024-02-21T00:42:58;99305.34;;;5.60;100.00
7433;BME280;32233;49.500;7.764;2024-02-21T00:45:25;99297.16;;;5.63;100.00
7433;BME280;32233;49.500;7.764;2024-02-21T00:47:51;99312.25;;;5.61;100.00
7433;BME280;32233;49.500;7.764;2024-02-21T00:50:18;99301.91;;;5.59;100.00
7433;BME280;32233;49.500;7.764;2024-02-21T00:52:44;99303.19;;;5.55;100.00
7433;BME280;32233;49.500;7.764;2024-02-21T00:55:11;99301.81;;;5.51;100.00
7433;BME280;32233;49.500;7.764;2024-02-21T00:57:38;99306.38;;;5.49;100.00
7433;BME280;32233;49.500;7.764;2024-02-21T01:00:05;99294.25;;;5.48;100.00
7433;BME280;32233;49.500;7.764;2024-02-21T01:02:32;99290.94;;;5.46;100.00
7433;BME280;32233;49.500;7.764;2024-02-21T01:04:59;99298.41;;;5.41;100.00
7433;BME280;32233;49.500;7.764;2024-02-21T01:07:25;99301.03;;;5.41;100.00
7433;BME280;32233;49.500;7.764;2024-02-21T01:09:52;99299.13;;;5.43;100.00
7433;BME280;32233;49.500;7.764;2024-02-21T01:12:19;99300.38;;;5.39;100.00
7433;BME280;32233;49.500;7.764;2024-02-21T01:14:46;99300.50;;;5.37;100.00
7433;BME280;32233;49.500;7.764;2024-02-21T01:17:13;99295.41;;;5.36;100.00
7433;BME280;32233;49.500;7.764;2024-02-21T01:19:39;99300.38;;;5.39;100.00
7433;BME280;32233;49.500;7.764;2024-02-21T01:22:06;99294.97;;;5.40;100.00
7433;BME280;32233;49.500;7.764;2024-02-21T01:24:33;99297.22;;;5.35;100.00
7433;BME280;32233;49.500;7.764;2024-02-21T01:27:00;99300.88;;;5.42;100.00
7433;BME280;32233;49.500;7.764;2024-02-21T01:29:26;99288.22;;;5.38;100.00
7433;BME280;32233;49.500;7.764;2024-02-21T01:31:53;99285.16;;;5.42;100.00
7433;BME280;32233;49.500;7.764;2024-02-21T01:34:19;99277.09;;;5.26;100.00
7433;BME280;32233;49.500;7.764;2024-02-21T01:36:46;99278.00;;;5.17;100.00
7433;BME280;32233;49.500;7.764;2024-02-21T01:39:13;99274.28;;;5.37;100.00
7433;BME280;32233;49.500;7.764;2024-02-21T01:41:39;99274.81;;;5.41;100.00
7433;BME280;32233;49.500;7.764;2024-02-21T01:44:06;99269.75;;;5.39;100.00
7433;BME280;32233;49.500;7.764;2024-02-21T01:46:33;99268.22;;;5.37;100.00
7433;BME280;32233;49.500;7.764;2024-02-21T01:49:00;99277.81;;;5.46;100.00
7433;BME280;32233;49.500;7.764;2024-02-21T01:51:27;99275.06;;;5.47;100.00
7433;BME280;32233;49.500;7.764;2024-02-21T01:53:55;99265.25;;;5.50;100.00
7433;BME280;32233;49.500;7.764;2024-02-21T01:56:22;99254.91;;;5.48;100.00
7433;BME280;32233;49.500;7.764;2024-02-21T01:58:49;99248.84;;;5.47;100.00
7433;BME280;32233;49.500;7.764;2024-02-21T02:01:16;99244.13;;;5.51;100.00
7433;BME280;32233;49.500;7.764;2024-02-21T02:03:47;99243.97;;;5.53;100.00
7433;BME280;32233;49.500;7.764;2024-02-21T02:06:15;99248.69;;;5.49;100.00
7433;BME280;32233;49.500;7.764;2024-02-21T02:08:42;99245.91;;;5.51;100.00
7433;BME280;32233;49.500;7.764;2024-02-21T02:11:09;99228.25;;;5.53;100.00
7433;BME280;32233;49.500;7.764;2024-02-21T02:13:36;99227.19;;;5.45;100.00
7433;BME280;32233;49.500;7.764;2024-02-21T02:16:03;99229.44;;;5.40;100.00
7433;BME280;32233;49.500;7.764;2024-02-21T02:18:30;99225.28;;;5.38;100.00
7433;BME280;32233;49.500;7.764;2024-02-21T02:20:57;99222.00;;;5.36;100.00
7433;BME280;32233;49.500;7.764;2024-02-21T02:23:28;99214.81;;;5.38;100.00
7433;BME280;32233;49.500;7.764;2024-02-21T02:25:55;99206.13;;;5.37;100.00
7433;BME280;32233;49.500;7.764;2024-02-21T02:28:23;99202.16;;;5.33;100.00
7433;BME280;32233;49.500;7.764;2024-02-21T02:30:50;99195.19;;;5.24;100.00
7433;BME280;32233;49.500;7.764;2024-02-21T02:33:17;99185.81;;;5.21;100.00
7433;BME280;32233;49.500;7.764;2024-02-21T02:35:44;99189.19;;;5.14;100.00
7433;BME280;32233;49.500;7.764;2024-02-21T02:38:12;99192.41;;;5.08;100.00
7433;BME280;32233;49.500;7.764;2024-02-21T02:40:40;99182.06;;;5.06;100.00
7433;BME280;32233;49.500;7.764;2024-02-21T02:43:07;99173.06;;;4.91;100.00
7433;BME280;32233;49.500;7.764;2024-02-21T02:45:33;99177.78;;;4.87;100.00
7433;BME280;32233;49.500;7.764;2024-02-21T02:48:00;99178.41;;;4.71;100.00
7433;BME280;32233;49.500;7.764;2024-02-21T02:50:27;99172.88;;;4.75;100.00
7433;BME280;32233;49.500;7.764;2024-02-21T02:52:54;99162.97;;;4.68;100.00
7433;BME280;32233;49.500;7.764;2024-02-21T02:55:21;99160.81;;;4.64;100.00
7433;BME280;32233;49.500;7.764;2024-02-21T02:57:48;99152.22;;;4.71;100.00
7433;BME280;32233;49.500;7.764;2024-02-21T03:00:15;99152.31;;;4.80;100.00
7433;BME280;32233;49.500;7.764;2024-02-21T03:02:44;99153.22;;;4.88;100.00
7433;BME280;32233;49.500;7.764;2024-02-21T03:05:16;99151.75;;;5.04;100.00
7433;BME280;32233;49.500;7.764;2024-02-21T03:07:44;99136.84;;;5.04;100.00
7433;BME280;32233;49.500;7.764;2024-02-21T03:10:11;99141.72;;;4.99;100.00
7433;BME280;32233;49.500;7.764;2024-02-21T03:12:38;99144.13;;;5.10;100.00
7433;BME280;32233;49.500;7.764;2024-02-21T03:15:05;99143.44;;;5.08;100.00
7433;BME280;32233;49.500;7.764;2024-02-21T03:17:32;99142.00;;;5.14;100.00
7433;BME280;32233;49.500;7.764;2024-02-21T03:20:04;99141.25;;;5.21;100.00
7433;BME280;32233;49.500;7.764;2024-02-21T03:22:32;99143.06;;;5.21;100.00
7433;BME280;32233;49.500;7.764;2024-02-21T03:24:59;99134.09;;;5.24;100.00
7433;BME280;32233;49.500;7.764;2024-02-21T03:27:26;99133.91;;;5.25;100.00
7433;BME280;32233;49.500;7.764;2024-02-21T03:29:52;99126.41;;;5.30;100.00
7433;BME280;32233;49.500;7.764;2024-02-21T03:32:19;99126.13;;;5.33;100.00
7433;BME280;32233;49.500;7.764;2024-02-21T03:34:46;99128.97;;;5.40;100.00
7433;BME280;32233;49.500;7.764;2024-02-21T03:37:12;99137.50;;;5.42;100.00
7433;BME280;32233;49.500;7.764;2024-02-21T03:39:41;99140.28;;;5.40;100.00
7433;BME280;32233;49.500;7.764;2024-02-21T03:42:07;99137.22;;;5.45;100.00
7433;BME280;32233;49.500;7.764;2024-02-21T03:44:34;99146.41;;;5.49;100.00
7433;BME280;32233;49.500;7.764;2024-02-21T03:47:01;99149.03;;;5.49;100.00
7433;BME280;32233;49.500;7.764;2024-02-21T03:49:27;99161.03;;;5.52;100.00
7433;BME280;32233;49.500;7.764;2024-02-21T03:51:55;99154.13;;;5.51;100.00
7433;BME280;32233;49.500;7.764;2024-02-21T03:54:22;99140.06;;;5.52;100.00
7433;BME280;32233;49.500;7.764;2024-02-21T03:56:48;99143.03;;;5.57;100.00
7433;BME280;32233;49.500;7.764;2024-02-21T03:59:16;99153.81;;;5.54;100.00
7433;BME280;32233;49.500;7.764;2024-02-21T04:01:42;99147.94;;;5.52;100.00
7433;BME280;32233;49.500;7.764;2024-02-21T04:04:10;99148.88;;;5.51;100.00
7433;BME280;32233;49.500;7.764;2024-02-21T04:06:38;99141.41;;;5.56;100.00
7433;BME280;32233;49.500;7.764;2024-02-21T04:09:12;99134.47;;;5.55;100.00
7433;BME280;32233;49.500;7.764;2024-02-21T04:11:38;99141.53;;;5.54;100.00
7433;BME280;32233;49.500;7.764;2024-02-21T04:14:05;99143.03;;;5.57;100.00
7433;BME280;32233;49.500;7.764;2024-02-21T04:16:31;99142.50;;;5.53;100.00
7433;BME280;32233;49.500;7.764;2024-02-21T04:18:58;99133.16;;;5.51;100.00
7433;BME280;32233;49.500;7.764;2024-02-21T04:21:25;99131.72;;;5.56;100.00
7433;BME280;32233;49.500;7.764;2024-02-21T04:23:51;99125.97;;;5.53;100.00
7433;BME280;32233;49.500;7.764;2024-02-21T04:26:18;99131.56;;;5.58;100.00
7433;BME280;32233;49.500;7.764;2024-02-21T04:28:45;99126.78;;;5.53;100.00
7433;BME280;32233;49.500;7.764;2024-02-21T04:31:12;99121.91;;;5.58;100.00
7433;BME280;32233;49.500;7.764;2024-02-21T04:33:39;99108.94;;;5.57;100.00
7433;BME280;32233;49.500;7.764;2024-02-21T04:36:05;99101.53;;;5.52;100.00
7433;BME280;32233;49.500;7.764;2024-02-21T04:38:32;99096.44;;;5.51;100.00
7433;BME280;32233;49.500;7.764;2024-02-21T04:40:59;99090.22;;;5.52;100.00
7433;BME280;32233;49.500;7.764;2024-02-21T04:43:25;99085.13;;;5.50;100.00
7433;BME280;32233;49.500;7.764;2024-02-21T04:45:52;99099.91;;;5.51;100.00
7433;BME280;32233;49.500;7.764;2024-02-21T04:48:20;99094.50;;;5.53;100.00
7433;BME280;32233;49.500;7.764;2024-02-21T04:50:47;99092.03;;;5.51;100.00
7433;BME280;32233;49.500;7.764;2024-02-21T04:53:13;99081.03;;;5.47;100.00
7433;BME280;32233;49.500;7.764;2024-02-21T04:55:40;99081.53;;;5.51;100.00
7433;BME280;32233;49.500;7.764;2024-02-21T04:58:07;99081.50;;;5.43;100.00
7433;BME280;32233;49.500;7.764;2024-02-21T05:00:34;99079.34;;;5.46;100.00
7433;BME280;32233;49.500;7.764;2024-02-21T05:03:01;99067.41;;;5.44;100.00
7433;BME280;32233;49.500;7.764;2024-02-21T05:05:27;99074.44;;;5.43;100.00
7433;BME280;32233;49.500;7.764;2024-02-21T05:07:55;99079.97;;;5.40;100.00
7433;BME280;32233;49.500;7.764;2024-02-21T05:10:21;99084.06;;;5.35;100.00
7433;BME280;32233;49.500;7.764;2024-02-21T05:12:48;99070.78;;;5.36;100.00
7433;BME280;32233;49.500;7.764;2024-02-21T05:15:14;99068.00;;;5.38;100.00
7433;BME280;32233;49.500;7.764;2024-02-21T05:17:41;99065.53;;;5.36;100.00
7433;BME280;32233;49.500;7.764;2024-02-21T05:20:09;99053.03;;;5.30;100.00
7433;BME280;32233;49.500;7.764;2024-02-21T05:22:36;99051.25;;;5.31;100.00
7433;BME280;32233;49.500;7.764;2024-02-21T05:25:03;99052.06;;;5.31;100.00
7433;BME280;32233;49.500;7.764;2024-02-21T05:27:30;99047.41;;;5.25;100.00
7433;BME280;32233;49.500;7.764;2024-02-21T05:29:56;99058.06;;;5.24;100.00
7433;BME280;32233;49.500;7.764;2024-02-21T05:32:25;99058.59;;;5.27;100.00
7433;BME280;32233;49.500;7.764;2024-02-21T05:34:52;99059.34;;;5.19;100.00
7433;BME280;32233;49.500;7.764;2024-02-21T05:37:19;99063.59;;;5.20;100.00
7433;BME280;32233;49.500;7.764;2024-02-21T05:39:46;99068.03;;;5.20;100.00
7433;BME280;32233;49.500;7.764;2024-02-21T05:42:12;99057.38;;;5.21;100.00
7433;BME280;32233;49.500;7.764;2024-02-21T05:44:39;99058.88;;;5.24;100.00
7433;BME280;32233;49.500;7.764;2024-02-21T05:47:05;99062.63;;;5.21;100.00
7433;BME280;32233;49.500;7.764;2024-02-21T05:49:36;99054.09;;;5.19;100.00
7433;BME280;32233;49.500;7.764;2024-02-21T05:52:04;99049.00;;;5.18;100.00
7433;BME280;32233;49.500;7.764;2024-02-21T05:54:32;99049.84;;;5.18;100.00
7433;BME280;32233;49.500;7.764;2024-02-21T05:56:59;99050.34;;;5.22;100.00
7433;BME280;32233;49.500;7.764;2024-02-21T05:59:26;99053.94;;;5.21;100.00
7433;BME280;32233;49.500;7.764;2024-02-21T06:01:56;99051.19;;;5.22;100.00
7433;BME280;32233;49.500;7.764;2024-02-21T06:04:24;99048.03;;;5.19;100.00
7433;BME280;32233;49.500;7.764;2024-02-21T06:06:51;99043.31;;;5.22;100.00
7433;BME280;32233;49.500;7.764;2024-02-21T06:09:18;99038.38;;;5.19;100.00
7433;BME280;32233;49.500;7.764;2024-02-21T06:11:44;99042.63;;;5.20;100.00
7433;BME280;32233;49.500;7.764;2024-02-21T06:14:12;99043.75;;;5.18;100.00
7433;BME280;32233;49.500;7.764;2024-02-21T06:16:39;99036.75;;;5.18;100.00
7433;BME280;32233;49.500;7.764;2024-02-21T06:19:06;99036.56;;;5.20;100.00
7433;BME280;32233;49.500;7.764;2024-02-21T06:21:36;99039.13;;;5.12;100.00
7433;BME280;32233;49.500;7.764;2024-02-21T06:24:03;99028.50;;;5.13;100.00
7433;BME280;32233;49.500;7.764;2024-02-21T06:26:30;99024.41;;;5.11;100.00
7433;BME280;32233;49.500;7.764;2024-02-21T06:28:57;99026.50;;;5.07;100.00
7433;BME280;32233;49.500;7.764;2024-02-21T06:31:24;99025.88;;;5.13;100.00
7433;BME280;32233;49.500;7.764;2024-02-21T06:33:50;99020.34;;;5.16;100.00
7433;BME280;32233;49.500;7.764;2024-02-21T06:36:17;99022.59;;;5.11;100.00
7433;BME280;32233;49.500;7.764;2024-02-21T06:38:44;99026.84;;;5.12;100.00
7433;BME280;32233;49.500;7.764;2024-02-21T06:41:20;99038.50;;;5.18;100.00
7433;BME280;32233;49.500;7.764;2024-02-21T06:43:47;99026.25;;;5.18;100.00
7433;BME280;32233;49.500;7.764;2024-02-21T06:46:24;99021.84;;;5.19;100.00
7433;BME280;32233;49.500;7.764;2024-02-21T06:48:51;99023.47;;;5.20;100.00
7433;BME280;32233;49.500;7.764;2024-02-21T06:51:18;99011.19;;;5.20;100.00
7433;BME280;32233;49.500;7.764;2024-02-21T06:53:45;99013.28;;;5.17;100.00
7433;BME280;32233;49.500;7.764;2024-02-21T06:56:11;99014.50;;;5.22;100.00
7433;BME280;32233;49.500;7.764;2024-02-21T06:58:38;99011.88;;;5.22;100.00
7433;BME280;32233;49.500;7.764;2024-02-21T07:01:05;99005.94;;;5.20;100.00
7433;BME280;32233;49.500;7.764;2024-02-21T07:03:31;99012.69;;;5.23;100.00
7433;BME280;32233;49.500;7.764;2024-02-21T07:05:58;99011.53;;;5.26;100.00
7433;BME280;32233;49.500;7.764;2024-02-21T07:08:25;99007.34;;;5.33;100.00
7433;BME280;32233;49.500;7.764;2024-02-21T07:10:52;99002.41;;;5.30;100.00
7433;BME280;32233;49.500;7.764;2024-02-21T07:13:19;99010.13;;;5.31;100.00
7433;BME280;32233;49.500;7.764;2024-02-21T07:15:48;99020.22;;;5.26;100.00
7433;BME280;32233;49.500;7.764;2024-02-21T07:18:15;99021.63;;;5.38;100.00
7433;BME280;32233;49.500;7.764;2024-02-21T07:20:42;99022.59;;;5.37;100.00
7433;BME280;32233;49.500;7.764;2024-02-21T07:23:09;99026.25;;;5.44;100.00
7433;BME280;32233;49.500;7.764;2024-02-21T07:25:35;99025.16;;;5.47;100.00
7433;BME280;32233;49.500;7.764;2024-02-21T07:28:02;99020.72;;;5.47;100.00
7433;BME280;32233;49.500;7.764;2024-02-21T07:30:29;99026.31;;;5.53;100.00
7433;BME280;32233;49.500;7.764;2024-02-21T07:32:55;99016.94;;;5.50;100.00
7433;BME280;32233;49.500;7.764;2024-02-21T07:35:22;99014.44;;;5.40;100.00
7433;BME280;32233;49.500;7.764;2024-02-21T07:37:49;99015.41;;;5.39;100.00
7433;BME280;32233;49.500;7.764;2024-02-21T07:40:16;99008.56;;;5.46;100.00
7433;BME280;32233;49.500;7.764;2024-02-21T07:42:44;98998.97;;;5.55;100.00
7433;BME280;32233;49.500;7.764;2024-02-21T07:45:16;98998.44;;;5.52;100.00
7433;BME280;32233;49.500;7.764;2024-02-21T07:47:45;99000.88;;;5.45;100.00
7433;BME280;32233;49.500;7.764;2024-02-21T07:50:11;98996.31;;;5.47;100.00
7433;BME280;32233;49.500;7.764;2024-02-21T07:52:38;98995.16;;;5.50;100.00
7433;BME280;32233;49.500;7.764;2024-02-21T07:55:05;98983.03;;;5.49;100.00
7433;BME280;32233;49.500;7.764;2024-02-21T07:57:31;98982.34;;;5.46;100.00
7433;BME280;32233;49.500;7.764;2024-02-21T07:59:58;98983.22;;;5.55;100.00
7433;BME280;32233;49.500;7.764;2024-02-21T08:02:24;98977.56;;;5.68;100.00
7433;BME280;32233;49.500;7.764;2024-02-21T08:04:51;98979.50;;;5.66;100.00
7433;BME280;32233;49.500;7.764;2024-02-21T08:07:18;98975.25;;;5.65;100.00
7433;BME280;32233;49.500;7.764;2024-02-21T08:09:44;98973.59;;;5.64;100.00
7433;BME280;32233;49.500;7.764;2024-02-21T08:12:11;98974.94;;;5.68;100.00
7433;BME280;32233;49.500;7.764;2024-02-21T08:14:38;98975.63;;;5.78;100.00
7433;BME280;32233;49.500;7.764;2024-02-21T08:17:04;98977.59;;;5.76;100.00
7433;BME280;32233;49.500;7.764;2024-02-21T08:19:31;98968.41;;;5.72;100.00
7433;BME280;32233;49.500;7.764;2024-02-21T08:21:58;98964.84;;;5.89;100.00
7433;BME280;32233;49.500;7.764;2024-02-21T08:24:24;98959.31;;;5.92;100.00
7433;BME280;32233;49.500;7.764;2024-02-21T08:26:51;98954.25;;;5.99;100.00
7433;BME280;32233;49.500;7.764;2024-02-21T08:29:17;98955.09;;;6.08;100.00
7433;BME280;32233;49.500;7.764;2024-02-21T08:31:44;98954.59;;;5.96;100.00
7433;BME280;32233;49.500;7.764;2024-02-21T08:34:11;98950.84;;;6.15;100.00
7433;BME280;32233;49.500;7.764;2024-02-21T08:36:40;98961.06;;;6.34;100.00
7433;BME280;32233;49.500;7.764;2024-02-21T08:39:06;98963.16;;;6.23;100.00
7433;BME280;32233;49.500;7.764;2024-02-21T08:41:35;98955.75;;;6.10;100.00
7433;BME280;32233;49.500;7.764;2024-02-21T08:44:25;98954.66;;;6.29;100.00
7433;BME280;32233;49.500;7.764;2024-02-21T08:46:53;98959.09;;;6.36;100.00
7433;BME280;32233;49.500;7.764;2024-02-21T08:49:20;98959.28;;;6.43;100.00
7433;BME280;32233;49.500;7.764;2024-02-21T08:51:47;98958.97;;;6.54;100.00
7433;BME280;32233;49.500;7.764;2024-02-21T08:54:13;98943.03;;;6.64;100.00
7433;BME280;32233;49.500;7.764;2024-02-21T08:56:40;98938.78;;;6.71;100.00
7433;BME280;32233;49.500;7.764;2024-02-21T08:59:06;98933.34;;;6.64;100.00
7433;BME280;32233;49.500;7.764;2024-02-21T09:01:33;98930.06;;;6.70;100.00
7433;BME280;32233;49.500;7.764;2024-02-21T09:04:01;98928.41;;;7.02;100.00
7433;BME280;32233;49.500;7.764;2024-02-21T09:06:29;98918.25;;;6.75;100.00
7433;BME280;32233;49.500;7.764;2024-02-21T09:08:57;98920.38;;;6.87;100.00
7433;BME280;32233;49.500;7.764;2024-02-21T09:11:24;98905.69;;;7.09;100.00
7433;BME280;32233;49.500;7.764;2024-02-21T09:13:51;98919.53;;;7.03;100.00
7433;BME280;32233;49.500;7.764;2024-02-21T09:16:18;98911.09;;;7.32;100.00
7433;BME280;32233;49.500;7.764;2024-02-21T09:18:45;98910.66;;;6.96;100.00
7433;BME280;32233;49.500;7.764;2024-02-21T09:21:12;98907.72;;;6.83;100.00
7433;BME280;32233;49.500;7.764;2024-02-21T09:23:39;98909.19;;;6.85;100.00
7433;BME280;32233;49.500;7.764;2024-02-21T09:26:06;98917.53;;;7.05;100.00
7433;BME280;32233;49.500;7.764;2024-02-21T09:28:34;98907.50;;;7.17;100.00
7433;BME280;32233;49.500;7.764;2024-02-21T09:31:04;98911.75;;;7.26;100.00
7433;BME280;32233;49.500;7.764;2024-02-21T09:33:31;98904.41;;;7.61;100.00
7433;BME280;32233;49.500;7.764;2024-02-21T09:35:59;98895.00;;;7.66;100.00
7433;BME280;32233;49.500;7.764;2024-02-21T09:38:26;98893.53;;;7.64;100.00
7433;BME280;32233;49.500;7.764;2024-02-21T09:43:34;98881.28;;;7.79;100.00
7433;BME280;32233;49.500;7.764;2024-02-21T09:46:01;98873.06;;;8.28;100.00
7433;BME280;32233;49.500;7.764;2024-02-21T09:51:30;98864.19;;;8.29;100.00
7433;BME280;32233;49.500;7.764;2024-02-21T09:53:59;98853.13;;;8.34;100.00
7433;BME280;32233;49.500;7.764;2024-02-21T09:56:40;98853.25;;;8.17;100.00
7433;BME280;32233;49.500;7.764;2024-02-21T09:59:07;98856.75;;;8.33;100.00
7433;BME280;32233;49.500;7.764;2024-02-21T10:01:34;98859.56;;;8.31;100.00
7433;BME280;32233;49.500;7.764;2024-02-21T10:04:03;98859.44;;;8.02;100.00
7433;BME280;32233;49.500;7.764;2024-02-21T10:06:32;98872.31;;;8.19;100.00
7433;BME280;32233;49.500;7.764;2024-02-21T10:08:59;98864.19;;;8.06;100.00
7433;BME280;32233;49.500;7.764;2024-02-21T10:11:26;98870.06;;;8.16;100.00
7433;BME280;32233;49.500;7.764;2024-02-21T10:14:05;98858.69;;;7.93;100.00
7433;BME280;32233;49.500;7.764;2024-02-21T10:16:33;98857.97;;;7.99;100.00
7433;BME280;32233;49.500;7.764;2024-02-21T10:19:00;98857.91;;;8.07;100.00
7433;BME280;32233;49.500;7.764;2024-02-21T10:21:27;98842.81;;;8.24;100.00
7433;BME280;32233;49.500;7.764;2024-02-21T10:23:54;98841.00;;;8.48;100.00
7433;BME280;32233;49.500;7.764;2024-02-21T10:26:21;98838.59;;;8.61;100.00
7433;BME280;32233;49.500;7.764;2024-02-21T10:28:47;98828.13;;;8.07;100.00
7433;BME280;32233;49.500;7.764;2024-02-21T10:31:26;98830.13;;;7.82;100.00
7433;BME280;32233;49.500;7.764;2024-02-21T10:33:55;98819.91;;;7.56;100.00
7433;BME280;32233;49.500;7.764;2024-02-21T10:36:23;98829.47;;;7.49;100.00
7433;BME280;32233;49.500;7.764;2024-02-21T10:38:53;98826.78;;;7.65;100.00
7433;BME280;32233;49.500;7.764;2024-02-21T10:41:23;98820.03;;;7.62;100.00
7433;BME280;32233;49.500;7.764;2024-02-21T10:43:52;98818.63;;;7.52;100.00
7433;BME280;32233;49.500;7.764;2024-02-21T10:46:22;98809.28;;;7.95;100.00
7433;BME280;32233;49.500;7.764;2024-02-21T10:49:10;98802.75;;;7.91;100.00
7433;BME280;32233;49.500;7.764;2024-02-21T10:51:43;98815.91;;;7.91;100.00
7433;BME280;32233;49.500;7.764;2024-02-21T10:54:35;98804.84;;;7.95;100.00
7433;BME280;32233;49.500;7.764;2024-02-21T10:57:06;98800.81;;;8.08;100.00
7433;BME280;32233;49.500;7.764;2024-02-21T10:59:33;98796.84;;;7.89;100.00
7433;BME280;32233;49.500;7.764;2024-02-21T11:02:01;98798.69;;;8.03;100.00
7433;BME280;32233;49.500;7.764;2024-02-21T11:04:29;98792.47;;;8.04;100.00
7433;BME280;32233;49.500;7.764;2024-02-21T11:06:59;98791.06;;;8.16;100.00
7433;BME280;32233;49.500;7.764;2024-02-21T11:09:31;98786.75;;;8.15;100.00
7433;BME280;32233;49.500;7.764;2024-02-21T11:12:05;98783.63;;;7.97;100.00
7433;BME280;32233;49.500;7.764;2024-02-21T11:14:33;98779.31;;;8.04;100.00
7433;BME280;32233;49.500;7.764;2024-02-21T11:17:14;98771.09;;;7.99;100.00
7433;BME280;32233;49.500;7.764;2024-02-21T11:19:42;98771.81;;;7.93;100.00
7433;BME280;32233;49.500;7.764;2024-02-21T11:22:16;98762.72;;;7.95;100.00
7433;BME280;32233;49.500;7.764;2024-02-21T11:24:44;98764.88;;;8.15;100.00
7433;BME280;32233;49.500;7.764;2024-02-21T11:29:47;98756.28;;;8.21;100.00
7433;BME280;32233;49.500;7.764;2024-02-21T11:32:15;98758.59;;;8.16;100.00
7433;BME280;32233;49.500;7.764;2024-02-21T11:37:35;98743.31;;;8.34;100.00
7433;BME280;32233;49.500;7.764;2024-02-21T11:40:05;98743.25;;;8.05;100.00
7433;BME280;32233;49.500;7.764;2024-02-21T11:42:36;98733.28;;;8.38;100.00
7433;BME280;32233;49.500;7.764;2024-02-21T11:45:03;98726.44;;;8.43;100.00
7433;BME280;32233;49.500;7.764;2024-02-21T11:47:30;98715.28;;;8.41;100.00
7433;BME280;32233;49.500;7.764;2024-02-21T11:49:56;98715.28;;;8.41;100.00
7433;BME280;32233;49.500;7.764;2024-02-21T11:52:25;98709.00;;;8.72;100.00
7433;BME280;32233;49.500;7.764;2024-02-21T11:54:53;98702.66;;;8.37;100.00
7433;BME280;32233;49.500;7.764;2024-02-21T11:57:21;98693.47;;;8.48;100.00
7433;BME280;32233;49.500;7.764;2024-02-21T11:59:48;98691.97;;;8.53;100.00
7433;BME280;32233;49.500;7.764;2024-02-21T12:02:19;98686.91;;;9.03;100.00
7433;BME280;32233;49.500;7.764;2024-02-21T12:04:46;98680.59;;;9.04;100.00
7433;BME280;32233;49.500;7.764;2024-02-21T12:07:14;98677.03;;;8.75;100.00
7433;BME280;32233;49.500;7.764;2024-02-21T12:09:41;98675.56;;;8.87;100.00
7433;BME280;32233;49.500;7.764;2024-02-21T12:12:08;98659.59;;;9.10;100.00
7433;BME280;32233;49.500;7.764;2024-02-21T12:14:35;98654.94;;;9.12;100.00
7433;BME280;32233;49.500;7.764;2024-02-21T12:17:02;98646.75;;;8.86;100.00
7433;BME280;32233;49.500;7.764;2024-02-21T12:19:33;98647.97;;;9.05;100.00
7433;BME280;32233;49.500;7.764;2024-02-21T12:22:00;98638.56;;;8.81;100.00
7433;BME280;32233;49.500;7.764;2024-02-21T12:24:28;98628.06;;;9.02;100.00
7433;BME280;32233;49.500;7.764;2024-02-21T12:26:56;98629.06;;;9.01;100.00
7433;BME280;32233;49.500;7.764;2024-02-21T12:29:24;98613.78;;;8.97;100.00
7433;BME280;32233;49.500;7.764;2024-02-21T12:31:55;98608.19;;;8.85;100.00
7433;BME280;32233;49.500;7.764;2024-02-21T12:34:23;98596.09;;;8.90;100.00
7433;BME280;32233;49.500;7.764;2024-02-21T12:37:04;98596.78;;;8.99;100.00
7433;BME280;32233;49.500;7.764;2024-02-21T12:39:31;98588.59;;;8.73;100.00
7433;BME280;32233;49.500;7.764;2024-02-21T12:41:59;98578.16;;;9.01;100.00
7433;BME280;32233;49.500;7.764;2024-02-21T12:44:25;98563.22;;;9.08;100.00
7433;BME280;32233;49.500;7.764;2024-02-21T12:46:53;98549.91;;;9.16;100.00
7433;BME280;32233;49.500;7.764;2024-02-21T12:49:21;98538.78;;;9.21;100.00
7433;BME280;32233;49.500;7.764;2024-02-21T12:51:48;98547.25;;;9.16;100.00
7433;BME280;32233;49.500;7.764;2024-02-21T12:54:15;98548.91;;;8.74;100.00
7433;BME280;32233;49.500;7.764;2024-02-21T12:56:42;98543.22;;;8.77;100.00
7433;BME280;32233;49.500;7.764;2024-02-21T12:59:08;98540.31;;;8.87;100.00
7433;BME280;32233;49.500;7.764;2024-02-21T13:01:36;98524.38;;;8.74;100.00
7433;BME280;32233;49.500;7.764;2024-02-21T13:04:04;98522.47;;;8.89;100.00
7433;BME280;32233;49.500;7.764;2024-02-21T13:06:31;98518.69;;;8.77;100.00
7433;BME280;32233;49.500;7.764;2024-02-21T13:08:57;98521.53;;;8.97;100.00
7433;BME280;32233;49.500;7.764;2024-02-21T13:11:25;98530.13;;;9.05;100.00
7433;BME280;32233;49.500;7.764;2024-02-21T13:13:55;98518.38;;;9.08;100.00
7433;BME280;32233;49.500;7.764;2024-02-21T13:16:21;98496.38;;;8.94;100.00
7433;BME280;32233;49.500;7.764;2024-02-21T13:18:49;98492.28;;;8.91;100.00
7433;BME280;32233;49.500;7.764;2024-02-21T13:21:16;98489.84;;;8.90;100.00
7433;BME280;32233;49.500;7.764;2024-02-21T13:23:43;98484.63;;;8.97;100.00